createdAt,value
2022-10-04T00:01:19.296Z,1.77
2022-10-04T00:04:30.352Z,1.70
2022-10-04T00:07:38.440Z,2.10
2022-10-04T00:10:41.336Z,1.50
2022-10-04T00:13:50.923Z,1.73
2022-10-04T00:16:53.834Z,1.60
2022-10-04T00:19:56.708Z,2.33
2022-10-04T00:23:26.242Z,2.00
2022-10-04T00:26:29.069Z,2.00
2022-10-04T00:29:36.053Z,2.03
2022-10-04T00:32:41.908Z,1.98
2022-10-04T00:35:44.753Z,1.90
2022-10-04T00:39:07.007Z,1.70
2022-10-04T00:42:21.840Z,1.50
2022-10-04T00:45:32.872Z,1.80
2022-10-04T00:48:51.682Z,2.00
2022-10-04T00:52:03.612Z,1.60
2022-10-04T00:55:07.912Z,1.80
2022-10-04T00:58:20.037Z,2.25
2022-10-04T01:01:23.837Z,2.35
2022-10-04T01:04:55.238Z,1.77
2022-10-04T01:08:04.452Z,1.83
2022-10-04T01:11:15.566Z,1.80
2022-10-04T01:14:29.376Z,1.98
2022-10-04T01:17:32.256Z,1.88
2022-10-04T01:20:59.078Z,2.05
2022-10-04T01:24:16.892Z,1.77
2022-10-04T01:27:37.322Z,1.83
2022-10-04T01:30:40.361Z,1.77
2022-10-04T01:33:43.231Z,2.00
2022-10-04T01:36:47.302Z,2.95
2022-10-04T01:39:54.432Z,2.20
2022-10-04T01:43:00.157Z,2.03
2022-10-04T01:46:15.777Z,2.15
2022-10-04T01:49:20.468Z,1.70
2022-10-04T01:52:29.460Z,2.30
2022-10-04T01:55:36.121Z,1.93
2022-10-04T01:58:50.559Z,2.10
2022-10-04T02:01:56.556Z,2.30
2022-10-04T02:04:59.541Z,2.00
2022-10-04T02:08:04.212Z,2.30
2022-10-04T02:11:07.327Z,2.50
2022-10-04T02:14:17.628Z,2.17
2022-10-04T02:17:31.452Z,2.30
2022-10-04T02:20:34.425Z,2.30
2022-10-04T02:23:37.709Z,2.50
2022-10-04T02:26:40.587Z,2.50
2022-10-04T02:29:43.518Z,2.83
2022-10-04T02:32:58.233Z,2.80
2022-10-04T02:36:01.338Z,2.78
2022-10-04T02:39:10.489Z,2.50
2022-10-04T02:42:32.208Z,2.87
2022-10-04T02:45:39.877Z,2.65
2022-10-04T02:48:49.800Z,2.60
2022-10-04T02:51:54.693Z,2.50
2022-10-04T02:55:07.290Z,2.60
2022-10-04T02:58:11.199Z,2.53
2022-10-04T03:01:26.760Z,2.60
2022-10-04T03:04:32.426Z,2.60
2022-10-04T03:07:36.209Z,2.50
2022-10-04T03:10:39.188Z,2.33
2022-10-04T03:13:44.638Z,2.60
2022-10-04T03:16:49.021Z,2.30
2022-10-04T03:19:51.919Z,2.60
2022-10-04T03:22:55.657Z,2.65
2022-10-04T03:26:04.526Z,2.67
2022-10-04T03:29:10.323Z,2.33
2022-10-04T03:32:16.846Z,2.75
2022-10-04T03:35:30.540Z,2.85
2022-10-04T03:38:34.692Z,2.90
2022-10-04T03:41:41.234Z,2.50
2022-10-04T03:44:45.565Z,2.50
2022-10-04T03:47:50.506Z,2.78
2022-10-04T03:50:53.412Z,2.85
2022-10-04T03:53:59.863Z,2.38
2022-10-04T03:57:02.741Z,2.88
2022-10-04T04:00:07.505Z,2.80
2022-10-04T04:03:18.048Z,2.78
2022-10-04T04:06:20.994Z,2.30
2022-10-04T04:09:52.315Z,2.97
2022-10-04T04:13:01.661Z,3.28
2022-10-04T04:16:05.621Z,2.70
2022-10-04T04:19:13.159Z,2.90
2022-10-04T04:22:16.747Z,2.60
2022-10-04T04:25:23.574Z,2.60
2022-10-04T04:28:27.588Z,2.50
2022-10-04T04:31:45.820Z,3.00
2022-10-04T04:34:53.899Z,3.50
2022-10-04T04:38:17.220Z,3.65
2022-10-04T04:41:20.083Z,3.30
2022-10-04T04:44:23.100Z,2.50
2022-10-04T04:47:40.737Z,2.83
2022-10-04T04:50:43.938Z,3.00
2022-10-04T04:53:47.747Z,2.83
2022-10-04T04:56:52.005Z,2.60
2022-10-04T04:59:57.837Z,2.78
2022-10-04T05:03:01.534Z,2.40
2022-10-04T05:06:04.652Z,2.92
2022-10-04T05:09:21.392Z,2.53
2022-10-04T05:12:24.437Z,2.53
2022-10-04T05:15:28.625Z,2.70
2022-10-04T05:18:33.168Z,2.60
2022-10-04T05:21:40.764Z,2.97
2022-10-04T05:24:46.951Z,2.40
2022-10-04T05:27:50.185Z,2.70
2022-10-04T05:31:30.587Z,3.22
2022-10-04T05:34:41.405Z,2.90
2022-10-04T05:38:07.840Z,2.20
2022-10-04T05:41:22.409Z,2.65
2022-10-04T05:44:28.157Z,2.35
2022-10-04T05:47:31.424Z,2.60
2022-10-04T05:50:42.036Z,2.40
2022-10-04T05:53:45.493Z,2.40
2022-10-04T05:56:55.297Z,2.45
2022-10-04T06:00:44.711Z,1.98
2022-10-04T06:03:59.464Z,2.30
2022-10-04T06:07:11.776Z,2.53
2022-10-04T06:10:28.387Z,2.30
2022-10-04T06:13:45.193Z,3.20
2022-10-04T06:16:59.925Z,2.22
2022-10-04T06:20:30.275Z,2.80
2022-10-04T06:23:34.885Z,2.60
2022-10-04T06:27:12.060Z,3.33
2022-10-04T06:30:16.743Z,3.17
2022-10-04T06:33:34.582Z,2.28
2022-10-04T06:36:58.059Z,3.05
2022-10-04T06:40:29.113Z,2.47
2022-10-04T06:43:40.563Z,2.75
2022-10-04T06:46:48.062Z,3.00
2022-10-04T06:50:28.696Z,2.50
2022-10-04T06:53:46.873Z,2.65
2022-10-04T06:57:16.189Z,2.30
2022-10-04T07:00:19.393Z,2.10
2022-10-04T07:03:40.395Z,2.08
2022-10-04T07:07:35.569Z,2.45
2022-10-04T07:10:52.145Z,2.22
2022-10-04T07:14:10.095Z,2.30
2022-10-04T07:17:20.001Z,2.25
2022-10-04T07:20:33.974Z,2.58
2022-10-04T07:23:49.184Z,2.53
2022-10-04T07:26:53.760Z,2.35
2022-10-04T07:29:57.980Z,2.40
2022-10-04T07:33:01.241Z,3.88
2022-10-04T07:36:19.806Z,2.50
2022-10-04T07:39:32.243Z,2.13
2022-10-04T07:42:40.509Z,2.47
2022-10-04T07:45:43.559Z,2.17
2022-10-04T07:48:52.520Z,2.05
2022-10-04T07:52:16.800Z,2.30
2022-10-04T07:56:00.678Z,12.02
2022-10-04T07:59:36.559Z,2.20
2022-10-04T08:03:14.619Z,1.83
2022-10-04T08:06:37.969Z,2.50
2022-10-04T08:10:02.517Z,2.70
2022-10-04T08:13:19.550Z,2.10
2022-10-04T08:16:32.907Z,2.47
2022-10-04T08:20:17.354Z,2.13
2022-10-04T08:23:50.390Z,2.17
2022-10-04T08:27:17.273Z,2.00
2022-10-04T08:30:20.338Z,2.08
2022-10-04T08:34:00.118Z,2.20
2022-10-04T08:37:29.431Z,2.10
2022-10-04T08:40:44.729Z,2.30
2022-10-04T08:44:06.527Z,2.22
2022-10-04T08:47:19.952Z,2.10
2022-10-04T08:50:51.920Z,2.38
2022-10-04T08:54:05.422Z,1.77
2022-10-04T08:57:39.239Z,1.90
2022-10-04T09:00:50.543Z,2.00
2022-10-04T09:04:38.243Z,2.00
2022-10-04T09:07:49.325Z,1.80
2022-10-04T09:11:14.145Z,1.90
2022-10-04T09:14:42.424Z,2.03
2022-10-04T09:18:10.373Z,1.80
2022-10-04T09:21:47.665Z,2.25
2022-10-04T09:25:03.585Z,2.03
2022-10-04T09:28:34.113Z,1.93
2022-10-04T09:32:14.168Z,1.80
2022-10-04T09:35:31.453Z,1.80
2022-10-04T09:38:43.623Z,2.75
2022-10-04T09:42:13.015Z,7.15
2022-10-04T09:45:27.477Z,2.17
2022-10-04T09:48:40.684Z,2.67
2022-10-04T09:52:15.472Z,3.03
2022-10-04T09:55:24.560Z,1.85
2022-10-04T09:58:49.002Z,4.05
2022-10-04T10:02:01.090Z,2.00
2022-10-04T10:05:31.775Z,2.08
2022-10-04T10:08:57.898Z,2.25
2022-10-04T10:12:53.581Z,2.20
2022-10-04T10:16:25.612Z,1.90
2022-10-04T10:19:34.377Z,2.00
2022-10-04T10:23:08.272Z,3.33
2022-10-04T10:26:38.828Z,3.65
2022-10-04T10:29:46.751Z,2.15
2022-10-04T10:33:01.861Z,2.35
2022-10-04T10:36:17.238Z,2.30
2022-10-04T10:39:56.878Z,2.05
2022-10-04T10:43:18.432Z,1.80
2022-10-04T10:46:33.602Z,2.00
2022-10-04T10:49:55.383Z,2.53
2022-10-04T10:53:31.378Z,2.37
2022-10-04T10:56:40.663Z,1.80
2022-10-04T11:00:06.300Z,1.60
2022-10-04T11:03:32.920Z,1.42
2022-10-04T11:07:22.161Z,1.30
2022-10-04T11:11:04.594Z,1.53
2022-10-04T11:14:15.278Z,2.10
2022-10-04T11:17:34.831Z,1.70
2022-10-04T11:20:59.522Z,1.60
2022-10-04T11:24:34.623Z,1.77
2022-10-04T11:28:20.351Z,1.60
2022-10-04T11:31:42.710Z,1.75
2022-10-04T11:35:22.813Z,1.55
2022-10-04T11:38:51.898Z,1.80
2022-10-04T11:42:05.211Z,2.58
2022-10-04T11:45:38.439Z,2.33
2022-10-04T11:48:53.304Z,2.95
2022-10-04T11:52:24.672Z,2.67
2022-10-04T11:55:54.099Z,2.80
2022-10-04T11:59:15.040Z,2.08
2022-10-04T12:02:26.892Z,1.80
2022-10-04T12:05:51.052Z,2.22
2022-10-04T12:09:11.876Z,2.88
2022-10-04T12:12:38.810Z,1.92
2022-10-04T12:15:59.931Z,1.83
2022-10-04T12:19:30.846Z,1.90
2022-10-04T12:22:36.528Z,1.40
2022-10-04T12:25:46.190Z,1.92
2022-10-04T12:29:11.164Z,1.60
2022-10-04T12:32:24.683Z,1.70
2022-10-04T12:35:36.190Z,1.40
2022-10-04T12:39:08.390Z,1.40
2022-10-04T12:42:39.642Z,1.70
2022-10-04T12:45:46.323Z,1.60
2022-10-04T12:49:18.809Z,1.70
2022-10-04T12:52:27.144Z,1.47
2022-10-04T12:56:03.666Z,1.42
2022-10-04T12:59:13.625Z,1.40
2022-10-04T13:02:44.676Z,1.90
2022-10-04T13:05:47.775Z,1.85
2022-10-04T13:08:53.585Z,1.10
2022-10-04T13:12:19.989Z,1.20
2022-10-04T13:17:24.774Z,1.23
2022-10-04T13:19:09.558Z,1.20
2022-10-04T13:22:37.553Z,1.23
2022-10-04T13:26:03.972Z,1.23
2022-10-04T13:29:22.498Z,2.25
2022-10-04T13:32:28.393Z,1.95
2022-10-04T13:35:54.613Z,1.20
2022-10-04T13:39:53.774Z,0.98
2022-10-04T13:43:12.739Z,1.27
2022-10-04T13:46:24.841Z,1.20
2022-10-04T13:49:30.357Z,1.40
2022-10-04T13:53:12.573Z,1.42
2022-10-04T13:56:52.759Z,1.20
2022-10-04T14:00:10.542Z,1.27
2022-10-04T14:03:26.183Z,1.25
2022-10-04T14:06:37.321Z,1.35
2022-10-04T14:09:55.479Z,1.50
2022-10-04T14:13:18.631Z,1.20
2022-10-04T14:16:56.172Z,1.30
2022-10-04T14:20:16.964Z,1.20
2022-10-04T14:23:38.433Z,1.38
2022-10-04T14:27:02.188Z,1.10
2022-10-04T14:30:08.143Z,1.50
2022-10-04T14:33:46.321Z,1.83
2022-10-04T14:37:32.691Z,1.33
2022-10-04T14:41:07.215Z,1.30
2022-10-04T14:44:15.224Z,1.30
2022-10-04T14:48:00.811Z,1.42
2022-10-04T14:51:19.822Z,1.20
2022-10-04T14:54:44.434Z,1.20
2022-10-04T14:57:56.728Z,1.50
2022-10-04T15:01:21.984Z,1.70
2022-10-04T15:04:48.987Z,2.15
2022-10-04T15:07:54.934Z,2.00
2022-10-04T15:11:08.812Z,1.55
2022-10-04T15:14:35.719Z,1.48
2022-10-04T15:17:41.821Z,1.30
2022-10-04T15:20:55.471Z,1.42
2022-10-04T15:24:00.630Z,1.87
2022-10-04T15:27:35.440Z,1.80
2022-10-04T15:30:48.934Z,1.98
2022-10-04T15:34:25.696Z,1.60
2022-10-04T15:37:52.321Z,1.53
2022-10-04T15:41:03.081Z,1.70
2022-10-04T15:44:13.346Z,1.30
2022-10-04T15:47:37.778Z,1.17
2022-10-04T15:51:03.642Z,1.60
2022-10-04T15:54:35.733Z,1.85
2022-10-04T15:57:42.014Z,2.05
2022-10-04T16:01:17.055Z,1.60
2022-10-04T16:04:35.561Z,1.85
2022-10-04T16:07:53.512Z,1.80
2022-10-04T16:11:43.027Z,1.63
2022-10-04T16:15:00.661Z,1.67
2022-10-04T16:18:46.854Z,2.30
2022-10-04T16:22:18.485Z,1.80
2022-10-04T16:25:35.880Z,1.80
2022-10-04T16:28:51.578Z,2.28
2022-10-04T16:32:21.355Z,2.00
2022-10-04T16:35:30.451Z,2.08
2022-10-04T16:38:35.772Z,2.10
2022-10-04T16:42:01.639Z,2.00
2022-10-04T16:45:07.714Z,2.10
2022-10-04T16:48:23.374Z,1.92
2022-10-04T16:51:44.958Z,2.03
2022-10-04T16:55:19.462Z,2.10
2022-10-04T16:58:28.224Z,2.10
2022-10-04T17:01:43.402Z,2.00
2022-10-04T17:04:46.320Z,2.88
2022-10-04T17:08:13.300Z,1.95
2022-10-04T17:11:28.196Z,1.85
2022-10-04T17:14:39.037Z,2.20
2022-10-04T17:18:04.796Z,2.97
2022-10-04T17:21:23.211Z,5.28
2022-10-04T17:24:41.308Z,5.50
2022-10-04T17:27:57.925Z,4.30
2022-10-04T17:31:33.948Z,5.43
2022-10-04T17:35:10.745Z,4.78
2022-10-04T17:38:18.929Z,4.65
2022-10-04T17:41:48.769Z,4.43
2022-10-04T17:45:21.265Z,5.00
2022-10-04T17:48:49.053Z,4.77
2022-10-04T17:52:12.344Z,7.18
2022-10-04T17:55:18.898Z,7.18
2022-10-04T17:58:26.667Z,5.28
2022-10-04T18:01:42.711Z,6.10
2022-10-04T18:04:54.757Z,4.90
2022-10-04T18:08:01.889Z,5.43
2022-10-04T18:11:26.036Z,6.07
2022-10-04T18:14:42.178Z,7.25
2022-10-04T18:17:47.673Z,7.05
2022-10-04T18:20:53.478Z,6.27
2022-10-04T18:24:19.112Z,6.63
2022-10-04T18:27:25.948Z,7.75
2022-10-04T18:30:30.258Z,6.97
2022-10-04T18:33:48.184Z,4.82
2022-10-04T18:37:19.807Z,5.33
2022-10-04T18:40:28.665Z,6.28
2022-10-04T18:43:45.429Z,6.68
2022-10-04T18:46:51.285Z,6.80
2022-10-04T18:49:55.034Z,5.90
2022-10-04T18:53:35.442Z,5.20
2022-10-04T18:57:01.153Z,6.13
2022-10-04T19:00:33.249Z,5.68
2022-10-04T19:03:48.410Z,5.28
2022-10-04T19:06:51.300Z,5.70
2022-10-04T19:10:03.080Z,5.23
2022-10-04T19:13:27.090Z,7.10
2022-10-04T19:17:04.404Z,10.48
2022-10-04T19:20:19.205Z,43.22
2022-10-04T19:24:00.866Z,18.17
2022-10-04T19:27:05.556Z,14.57
2022-10-04T19:30:22.214Z,13.48
2022-10-04T19:33:37.806Z,12.77
2022-10-04T19:36:51.120Z,13.05
2022-10-04T19:40:06.017Z,14.68
2022-10-04T19:43:42.244Z,13.23
2022-10-04T19:46:59.423Z,13.65
2022-10-04T19:50:25.740Z,10.90
2022-10-04T19:53:36.348Z,17.35
2022-10-04T19:56:49.398Z,13.98
2022-10-04T19:59:52.629Z,13.80
2022-10-04T20:02:55.645Z,14.07
2022-10-04T20:05:58.583Z,14.48
2022-10-04T20:09:30.678Z,13.00
2022-10-04T20:12:41.408Z,19.50
2022-10-04T20:15:51.081Z,30.70
2022-10-04T20:18:58.906Z,20.52
2022-10-04T20:22:08.137Z,13.40
2022-10-04T20:25:11.059Z,14.48
2022-10-04T20:28:40.146Z,16.40
2022-10-04T20:31:52.656Z,15.67
2022-10-04T20:34:56.344Z,13.60
2022-10-04T20:38:27.314Z,14.82
2022-10-04T20:41:51.304Z,14.48
2022-10-04T20:44:58.295Z,15.32
2022-10-04T20:48:01.360Z,12.93
2022-10-04T20:51:09.585Z,13.02
2022-10-04T20:54:20.264Z,12.63
2022-10-04T20:57:23.950Z,13.15
2022-10-04T21:00:27.793Z,12.93
2022-10-04T21:03:30.721Z,10.87
2022-10-04T21:06:49.872Z,12.25
2022-10-04T21:09:53.838Z,10.40
2022-10-04T21:12:56.751Z,10.10
2022-10-04T21:16:00.524Z,11.68
2022-10-04T21:19:35.785Z,13.60
2022-10-04T21:22:39.018Z,16.63
2022-10-04T21:25:41.989Z,17.33
2022-10-04T21:28:44.881Z,16.88
2022-10-04T21:31:48.269Z,17.30
2022-10-04T21:34:53.937Z,15.73
2022-10-04T21:37:58.968Z,14.73
2022-10-04T21:41:01.963Z,14.07
2022-10-04T21:44:04.947Z,13.07
2022-10-04T21:47:07.849Z,11.55
2022-10-04T21:50:10.794Z,11.80
2022-10-04T21:53:13.745Z,12.20
2022-10-04T21:56:16.662Z,12.15
2022-10-04T21:59:19.954Z,10.93
2022-10-04T22:02:22.881Z,11.75
2022-10-04T22:05:25.972Z,8.93
2022-10-04T22:08:28.851Z,10.18
2022-10-04T22:11:31.770Z,9.35
2022-10-04T22:14:34.679Z,9.77
2022-10-04T22:17:37.600Z,9.63
2022-10-04T22:20:40.491Z,8.60
2022-10-04T22:23:43.933Z,9.20
2022-10-04T22:26:47.263Z,9.13
2022-10-04T22:29:50.403Z,9.40
2022-10-04T22:32:55.754Z,8.88
2022-10-04T22:36:43.240Z,9.13
2022-10-04T22:39:46.237Z,7.80
2022-10-04T22:42:53.391Z,8.90
2022-10-04T22:45:56.331Z,7.65
2022-10-04T22:48:59.252Z,6.90
2022-10-04T22:52:06.194Z,7.77
2022-10-04T22:55:10.010Z,6.82
2022-10-04T22:58:14.272Z,6.78
2022-10-04T23:01:17.978Z,6.50
2022-10-04T23:04:24.860Z,6.40
2022-10-04T23:07:27.782Z,6.20
2022-10-04T23:10:30.705Z,5.95
2022-10-04T23:13:33.613Z,5.47
2022-10-04T23:16:37.013Z,5.00
2022-10-04T23:19:39.976Z,4.50
2022-10-04T23:22:46.688Z,3.77
2022-10-04T23:25:49.693Z,4.38
2022-10-04T23:28:52.667Z,5.50
2022-10-04T23:31:55.832Z,5.53
2022-10-04T23:34:58.799Z,4.90
2022-10-04T23:38:06.910Z,4.77
2022-10-04T23:41:11.585Z,5.13
2022-10-04T23:44:14.632Z,4.97
2022-10-04T23:47:20.911Z,4.03
2022-10-04T23:50:23.895Z,4.50
2022-10-04T23:53:28.497Z,4.40
2022-10-04T23:56:31.386Z,4.30
2022-10-04T23:59:34.333Z,4.93
